sensor_id;sensor_type;location;lat;lon;timestamp;pressure;altitude;pressure_sealevel;temperature;humidity
13709;BME280;54933;51.908;7.730;2023-07-13T00:01:50;100758.72;;;25.29;72.41
13709;BME280;54933;51.908;7.730;2023-07-13T00:04:17;100754.94;;;25.30;71.84
13709;BME280;54933;51.908;7.730;2023-07-13T00:06:44;100760.38;;;25.30;72.19
13709;BME280;54933;51.908;7.730;2023-07-13T00:09:14;100753.28;;;25.29;72.28
13709;BME280;54933;51.908;7.730;2023-07-13T00:11:40;100756.59;;;25.31;72.11
13709;BME280;54933;51.908;7.730;2023-07-13T00:14:06;100758.47;;;25.30;72.51
13709;BME280;54933;51.908;7.730;2023-07-13T00:16:34;100761.19;;;25.30;72.32
13709;BME280;54933;51.908;7.730;2023-07-13T00:18:59;100763.91;;;25.30;72.58
13709;BME280;54933;51.908;7.730;2023-07-13T00:21:25;100763.69;;;25.32;72.03
13709;BME280;54933;51.908;7.730;2023-07-13T00:23:50;100763.69;;;25.32;72.13
13709;BME280;54933;51.908;7.730;2023-07-13T00:26:16;100761.78;;;25.32;72.21
13709;BME280;54933;51.908;7.730;2023-07-13T00:28:42;100765.56;;;25.31;72.24
13709;BME280;54933;51.908;7.730;2023-07-13T00:31:09;100764.50;;;25.32;72.06
13709;BME280;54933;51.908;7.730;2023-07-13T00:33:34;100769.13;;;25.32;72.04
13709;BME280;54933;51.908;7.730;2023-07-13T00:35:59;100765.34;;;25.33;71.84
13709;BME280;54933;51.908;7.730;2023-07-13T00:38:25;100768.06;;;25.33;72.02
13709;BME280;54933;51.908;7.730;2023-07-13T00:40:50;100766.16;;;25.33;71.96
13709;BME280;54933;51.908;7.730;2023-07-13T00:43:18;100771.59;;;25.33;71.74
13709;BME280;54933;51.908;7.730;2023-07-13T00:48:13;100775.38;;;25.32;71.98
13709;BME280;54933;51.908;7.730;2023-07-13T00:50:40;100774.91;;;25.35;72.04
13709;BME280;54933;51.908;7.730;2023-07-13T00:53:07;100772.41;;;25.34;71.93
13709;BME280;54933;51.908;7.730;2023-07-13T00:55:33;100776.00;;;25.34;72.00
13709;BME280;54933;51.908;7.730;2023-07-13T00:57:59;100772.41;;;25.34;72.06
13709;BME280;54933;51.908;7.730;2023-07-13T01:00:25;100774.56;;;25.32;71.68
13709;BME280;54933;51.908;7.730;2023-07-13T01:02:52;100769.13;;;25.32;71.72
13709;BME280;54933;51.908;7.730;2023-07-13T01:05:21;100776.22;;;25.33;71.54
13709;BME280;54933;51.908;7.730;2023-07-13T01:07:49;100768.06;;;25.33;71.88
13709;BME280;54933;51.908;7.730;2023-07-13T01:10:21;100775.38;;;25.32;71.64
13709;BME280;54933;51.908;7.730;2023-07-13T01:12:46;100768.06;;;25.33;71.43
13709;BME280;54933;51.908;7.730;2023-07-13T01:15:43;100774.56;;;25.32;71.66
13709;BME280;54933;51.908;7.730;2023-07-13T01:18:14;100769.94;;;25.32;71.28
13709;BME280;54933;51.908;7.730;2023-07-13T01:20:41;100770.19;;;25.31;71.42
13709;BME280;54933;51.908;7.730;2023-07-13T01:23:10;100763.69;;;25.32;71.20
13709;BME280;54933;51.908;7.730;2023-07-13T01:25:36;100762.59;;;25.33;71.54
13709;BME280;54933;51.908;7.730;2023-07-13T01:28:03;100756.59;;;25.31;71.38
13709;BME280;54933;51.908;7.730;2023-07-13T01:30:29;100761.19;;;25.30;71.13
13709;BME280;54933;51.908;7.730;2023-07-13T01:32:54;100756.59;;;25.31;71.38
13709;BME280;54933;51.908;7.730;2023-07-13T01:35:19;100760.13;;;25.31;71.23
13709;BME280;54933;51.908;7.730;2023-07-13T01:37:44;100753.88;;;25.31;71.19
13709;BME280;54933;51.908;7.730;2023-07-13T01:40:11;100754.94;;;25.30;71.19
13709;BME280;54933;51.908;7.730;2023-07-13T01:42:37;100758.72;;;25.29;71.04
13709;BME280;54933;51.908;7.730;2023-07-13T01:45:03;100758.72;;;25.29;71.11
13709;BME280;54933;51.908;7.730;2023-07-13T01:47:29;100752.47;;;25.28;71.04
13709;BME280;54933;51.908;7.730;2023-07-13T01:49:55;100761.19;;;25.30;70.90
13709;BME280;54933;51.908;7.730;2023-07-13T01:52:21;100765.25;;;25.28;71.03
13709;BME280;54933;51.908;7.730;2023-07-13T01:54:46;100769.59;;;25.29;71.05
13709;BME280;54933;51.908;7.730;2023-07-13T01:57:11;100767.97;;;25.28;70.79
13709;BME280;54933;51.908;7.730;2023-07-13T01:59:36;100761.34;;;25.24;70.73
13709;BME280;54933;51.908;7.730;2023-07-13T02:02:02;100770.06;;;25.09;71.14
13709;BME280;54933;51.908;7.730;2023-07-13T02:04:27;100770.53;;;25.06;71.50
13709;BME280;54933;51.908;7.730;2023-07-13T02:06:52;100776.22;;;25.05;71.84
13709;BME280;54933;51.908;7.730;2023-07-13T02:09:17;100778.94;;;25.05;71.94
13709;BME280;54933;51.908;7.730;2023-07-13T02:11:43;100782.75;;;25.04;72.00
13709;BME280;54933;51.908;7.730;2023-07-13T02:14:08;100782.50;;;25.05;72.31
13709;BME280;54933;51.908;7.730;2023-07-13T02:16:33;100773.03;;;25.08;72.33
13709;BME280;54933;51.908;7.730;2023-07-13T02:18:59;100774.69;;;25.09;72.02
13709;BME280;54933;51.908;7.730;2023-07-13T02:21:25;100781.28;;;25.13;72.44
13709;BME280;54933;51.908;7.730;2023-07-13T02:23:50;100785.91;;;25.12;72.24
13709;BME280;54933;51.908;7.730;2023-07-13T02:26:16;100791.09;;;25.14;72.10
13709;BME280;54933;51.908;7.730;2023-07-13T02:28:41;100784.00;;;25.13;72.13
13709;BME280;54933;51.908;7.730;2023-07-13T02:31:09;100781.84;;;25.15;72.14
13709;BME280;54933;51.908;7.730;2023-07-13T02:33:35;100777.00;;;25.17;71.95
13709;BME280;54933;51.908;7.730;2023-07-13T02:36:00;100777.25;;;25.15;71.96
13709;BME280;54933;51.908;7.730;2023-07-13T02:38:25;100777.00;;;25.17;72.08
13709;BME280;54933;51.908;7.730;2023-07-13T02:40:51;100774.03;;;25.18;71.88
13709;BME280;54933;51.908;7.730;2023-07-13T02:43:16;100772.16;;;25.19;72.28
13709;BME280;54933;51.908;7.730;2023-07-13T02:45:45;100761.28;;;25.19;72.23
13709;BME280;54933;51.908;7.730;2023-07-13T02:48:10;100776.53;;;25.20;71.91
13709;BME280;54933;51.908;7.730;2023-07-13T02:50:36;100770.25;;;25.19;72.25
13709;BME280;54933;51.908;7.730;2023-07-13T02:53:01;100771.06;;;25.20;72.01
13709;BME280;54933;51.908;7.730;2023-07-13T02:55:26;100769.19;;;25.20;71.97
13709;BME280;54933;51.908;7.730;2023-07-13T02:57:51;100768.94;;;25.22;72.01
13709;BME280;54933;51.908;7.730;2023-07-13T03:00:17;100770.00;;;25.21;72.03
13709;BME280;54933;51.908;7.730;2023-07-13T03:02:42;100776.53;;;25.20;71.85
13709;BME280;54933;51.908;7.730;2023-07-13T03:05:08;100772.72;;;25.21;71.41
13709;BME280;54933;51.908;7.730;2023-07-13T03:07:37;100779.00;;;25.21;71.94
13709;BME280;54933;51.908;7.730;2023-07-13T03:10:03;100779.81;;;25.22;71.62
13709;BME280;54933;51.908;7.730;2023-07-13T03:12:28;100780.63;;;25.22;71.99
13709;BME280;54933;51.908;7.730;2023-07-13T03:14:54;100777.09;;;25.22;71.82
13709;BME280;54933;51.908;7.730;2023-07-13T03:17:19;100786.91;;;25.23;71.90
13709;BME280;54933;51.908;7.730;2023-07-13T03:19:44;100786.91;;;25.23;71.96
13709;BME280;54933;51.908;7.730;2023-07-13T03:22:10;100791.75;;;25.21;71.44
13709;BME280;54933;51.908;7.730;2023-07-13T03:24:35;100792.34;;;25.23;71.77
13709;BME280;54933;51.908;7.730;2023-07-13T03:27:04;100793.19;;;25.23;71.62
13709;BME280;54933;51.908;7.730;2023-07-13T03:29:29;100789.63;;;25.23;71.78
13709;BME280;54933;51.908;7.730;2023-07-13T03:31:54;100786.91;;;25.23;71.50
13709;BME280;54933;51.908;7.730;2023-07-13T03:34:20;100792.09;;;25.24;71.38
13709;BME280;54933;51.908;7.730;2023-07-13T03:36:45;100792.94;;;25.25;71.61
13709;BME280;54933;51.908;7.730;2023-07-13T03:39:10;100788.53;;;25.24;71.87
13709;BME280;54933;51.908;7.730;2023-07-13T03:41:36;100797.78;;;25.23;71.54
13709;BME280;54933;51.908;7.730;2023-07-13T03:44:01;100794.81;;;25.24;71.90
13709;BME280;54933;51.908;7.730;2023-07-13T03:46:27;100797.53;;;25.24;71.45
13709;BME280;54933;51.908;7.730;2023-07-13T03:48:53;100810.88;;;25.26;71.58
13709;BME280;54933;51.908;7.730;2023-07-13T03:51:19;100813.63;;;25.26;71.75
13709;BME280;54933;51.908;7.730;2023-07-13T03:53:45;100816.09;;;25.27;71.73
13709;BME280;54933;51.908;7.730;2023-07-13T03:56:12;100806.03;;;25.28;71.64
13709;BME280;54933;51.908;7.730;2023-07-13T03:58:40;100808.75;;;25.28;71.66
13709;BME280;54933;51.908;7.730;2023-07-13T04:01:08;100798.13;;;25.26;71.35
13709;BME280;54933;51.908;7.730;2023-07-13T04:03:34;100810.66;;;25.27;71.34
13709;BME280;54933;51.908;7.730;2023-07-13T04:06:00;100816.09;;;25.27;71.31
13709;BME280;54933;51.908;7.730;2023-07-13T04:08:31;100814.19;;;25.28;71.44
13709;BME280;54933;51.908;7.730;2023-07-13T04:10:57;100815.03;;;25.28;71.32
13709;BME280;54933;51.908;7.730;2023-07-13T04:13:23;100814.19;;;25.28;71.28
13709;BME280;54933;51.908;7.730;2023-07-13T04:15:49;100809.84;;;25.27;71.28
13709;BME280;54933;51.908;7.730;2023-07-13T04:18:14;100824.25;;;25.27;71.01
13709;BME280;54933;51.908;7.730;2023-07-13T04:20:39;100821.78;;;25.26;71.28
13709;BME280;54933;51.908;7.730;2023-07-13T04:23:05;100819.88;;;25.26;71.00
13709;BME280;54933;51.908;7.730;2023-07-13T04:25:30;100809.16;;;25.20;70.87
13709;BME280;54933;51.908;7.730;2023-07-13T04:27:55;100818.28;;;25.14;71.10
13709;BME280;54933;51.908;7.730;2023-07-13T04:30:21;100829.41;;;25.12;71.09
13709;BME280;54933;51.908;7.730;2023-07-13T04:32:48;100826.91;;;25.11;71.28
13709;BME280;54933;51.908;7.730;2023-07-13T04:35:13;100837.78;;;25.11;71.29
13709;BME280;54933;51.908;7.730;2023-07-13T04:37:39;100830.47;;;25.11;71.61
13709;BME280;54933;51.908;7.730;2023-07-13T04:40:05;100835.56;;;25.08;71.58
13709;BME280;54933;51.908;7.730;2023-07-13T04:42:31;100846.69;;;25.06;71.38
13709;BME280;54933;51.908;7.730;2023-07-13T04:44:56;100833.34;;;25.05;71.47
13709;BME280;54933;51.908;7.730;2023-07-13T04:47:21;100840.19;;;25.07;71.54
13709;BME280;54933;51.908;7.730;2023-07-13T04:49:47;100829.56;;;25.06;71.47
13709;BME280;54933;51.908;7.730;2023-07-13T04:52:13;100835.00;;;25.06;71.34
13709;BME280;54933;51.908;7.730;2023-07-13T04:54:38;100838.28;;;25.08;71.10
13709;BME280;54933;51.908;7.730;2023-07-13T04:57:04;100838.28;;;25.08;71.42
13709;BME280;54933;51.908;7.730;2023-07-13T04:59:34;100830.13;;;25.08;71.01
13709;BME280;54933;51.908;7.730;2023-07-13T05:02:00;100837.22;;;25.09;70.69
13709;BME280;54933;51.908;7.730;2023-07-13T05:04:26;100850.81;;;25.09;70.64
13709;BME280;54933;51.908;7.730;2023-07-13T05:06:52;100855.91;;;25.05;70.50
13709;BME280;54933;51.908;7.730;2023-07-13T05:09:17;100851.78;;;25.03;70.64
13709;BME280;54933;51.908;7.730;2023-07-13T05:11:43;100854.72;;;25.01;70.80
13709;BME280;54933;51.908;7.730;2023-07-13T05:14:08;100853.34;;;24.99;70.92
13709;BME280;54933;51.908;7.730;2023-07-13T05:16:35;100855.56;;;25.02;71.01
13709;BME280;54933;51.908;7.730;2023-07-13T05:19:00;100846.81;;;25.00;71.03
13709;BME280;54933;51.908;7.730;2023-07-13T05:21:25;100855.81;;;25.00;70.92
13709;BME280;54933;51.908;7.730;2023-07-13T05:23:50;100857.69;;;25.00;70.67
13709;BME280;54933;51.908;7.730;2023-07-13T05:26:16;100861.97;;;24.96;70.30
13709;BME280;54933;51.908;7.730;2023-07-13T05:28:41;100862.47;;;24.93;70.22
13709;BME280;54933;51.908;7.730;2023-07-13T05:31:08;100869.75;;;25.04;69.87
13709;BME280;54933;51.908;7.730;2023-07-13T05:33:34;100872.31;;;24.71;69.68
13709;BME280;54933;51.908;7.730;2023-07-13T05:35:59;100875.19;;;23.88;67.22
13709;BME280;54933;51.908;7.730;2023-07-13T05:38:26;100877.31;;;23.86;66.23
13709;BME280;54933;51.908;7.730;2023-07-13T05:40:54;100885.63;;;23.62;65.28
13709;BME280;54933;51.908;7.730;2023-07-13T05:43:20;100880.66;;;24.11;65.00
13709;BME280;54933;51.908;7.730;2023-07-13T05:45:45;100888.22;;;24.33;64.83
13709;BME280;54933;51.908;7.730;2023-07-13T05:48:11;100890.84;;;24.51;64.54
13709;BME280;54933;51.908;7.730;2023-07-13T05:50:36;100888.59;;;24.59;65.34
13709;BME280;54933;51.908;7.730;2023-07-13T05:53:02;100882.56;;;24.69;65.98
13709;BME280;54933;51.908;7.730;2023-07-13T05:55:27;100878.69;;;24.76;65.94
13709;BME280;54933;51.908;7.730;2023-07-13T05:57:52;100889.31;;;24.78;66.00
13709;BME280;54933;51.908;7.730;2023-07-13T06:00:17;100890.47;;;24.82;66.24
13709;BME280;54933;51.908;7.730;2023-07-13T06:02:43;100885.16;;;24.87;66.62
13709;BME280;54933;51.908;7.730;2023-07-13T06:05:08;100896.38;;;24.90;66.89
13709;BME280;54933;51.908;7.730;2023-07-13T06:07:34;100898.03;;;24.91;67.00
13709;BME280;54933;51.908;7.730;2023-07-13T06:09:59;100893.41;;;24.92;67.40
13709;BME280;54933;51.908;7.730;2023-07-13T06:12:25;100891.28;;;24.94;67.34
13709;BME280;54933;51.908;7.730;2023-07-13T06:14:50;100894.59;;;24.96;67.61
13709;BME280;54933;51.908;7.730;2023-07-13T06:17:16;100891.66;;;24.97;67.94
13709;BME280;54933;51.908;7.730;2023-07-13T06:19:41;100893.03;;;25.00;68.13
13709;BME280;54933;51.908;7.730;2023-07-13T06:22:06;100900.16;;;25.01;68.16
13709;BME280;54933;51.908;7.730;2023-07-13T06:24:32;100892.31;;;25.04;68.13
13709;BME280;54933;51.908;7.730;2023-07-13T06:26:57;100889.28;;;25.01;68.37
13709;BME280;54933;51.908;7.730;2023-07-13T06:29:22;100895.28;;;25.03;68.81
13709;BME280;54933;51.908;7.730;2023-07-13T06:31:47;100899.06;;;25.02;68.76
13709;BME280;54933;51.908;7.730;2023-07-13T06:34:13;100900.72;;;25.03;68.55
13709;BME280;54933;51.908;7.730;2023-07-13T06:36:38;100901.56;;;25.03;68.23
13709;BME280;54933;51.908;7.730;2023-07-13T06:39:04;100911.34;;;25.04;68.25
13709;BME280;54933;51.908;7.730;2023-07-13T06:41:29;100908.97;;;25.08;68.27
13709;BME280;54933;51.908;7.730;2023-07-13T06:43:55;100908.97;;;25.08;67.91
13709;BME280;54933;51.908;7.730;2023-07-13T06:46:22;100908.97;;;25.08;67.83
13709;BME280;54933;51.908;7.730;2023-07-13T06:48:47;100908.41;;;25.06;67.51
13709;BME280;54933;51.908;7.730;2023-07-13T06:51:12;100923.16;;;25.10;67.45
13709;BME280;54933;51.908;7.730;2023-07-13T06:53:38;100923.16;;;25.10;67.38
13709;BME280;54933;51.908;7.730;2023-07-13T06:56:03;100918.56;;;25.10;67.22
13709;BME280;54933;51.908;7.730;2023-07-13T06:58:28;100930.59;;;25.14;67.69
13709;BME280;54933;51.908;7.730;2023-07-13T07:00:54;100926.59;;;24.25;66.90
13709;BME280;54933;51.908;7.730;2023-07-13T07:03:19;100932.91;;;24.60;66.27
13709;BME280;54933;51.908;7.730;2023-07-13T07:05:44;100938.69;;;24.63;65.66
13709;BME280;54933;51.908;7.730;2023-07-13T07:08:10;100942.81;;;24.66;65.01
13709;BME280;54933;51.908;7.730;2023-07-13T07:10:35;100940.56;;;24.63;64.70
13709;BME280;54933;51.908;7.730;2023-07-13T07:13:01;100941.06;;;24.60;64.55
13709;BME280;54933;51.908;7.730;2023-07-13T07:15:26;100940.22;;;24.48;64.77
13709;BME280;54933;51.908;7.730;2023-07-13T07:17:52;100938.59;;;24.70;64.47
13709;BME280;54933;51.908;7.730;2023-07-13T07:20:17;100939.06;;;24.78;64.71
13709;BME280;54933;51.908;7.730;2023-07-13T07:22:42;100940.00;;;24.84;64.88
13709;BME280;54933;51.908;7.730;2023-07-13T07:25:08;100945.78;;;24.87;65.21
13709;BME280;54933;51.908;7.730;2023-07-13T07:27:33;100941.75;;;24.90;65.30
13709;BME280;54933;51.908;7.730;2023-07-13T07:29:59;100939.53;;;24.87;65.50
13709;BME280;54933;51.908;7.730;2023-07-13T07:32:24;100943.31;;;24.86;65.82
13709;BME280;54933;51.908;7.730;2023-07-13T07:34:50;100949.25;;;24.83;66.25
13709;BME280;54933;51.908;7.730;2023-07-13T07:37:15;100945.78;;;24.87;66.37
13709;BME280;54933;51.908;7.730;2023-07-13T07:39:42;100943.31;;;24.86;66.64
13709;BME280;54933;51.908;7.730;2023-07-13T07:42:08;100948.28;;;24.89;66.79
13709;BME280;54933;51.908;7.730;2023-07-13T07:44:33;100950.41;;;24.87;66.78
13709;BME280;54933;51.908;7.730;2023-07-13T07:46:59;100952.06;;;24.88;67.08
13709;BME280;54933;51.908;7.730;2023-07-13T07:49:24;100949.91;;;24.90;67.06
13709;BME280;54933;51.908;7.730;2023-07-13T07:51:50;100954.06;;;24.92;67.49
13709;BME280;54933;51.908;7.730;2023-07-13T07:54:16;100947.78;;;24.92;67.14
13709;BME280;54933;51.908;7.730;2023-07-13T07:56:41;100947.56;;;24.93;67.47
13709;BME280;54933;51.908;7.730;2023-07-13T07:59:07;100947.31;;;24.95;67.31
13709;BME280;54933;51.908;7.730;2023-07-13T08:01:32;100946.03;;;24.97;67.25
13709;BME280;54933;51.908;7.730;2023-07-13T08:03:57;100938.22;;;25.01;67.69
13709;BME280;54933;51.908;7.730;2023-07-13T08:06:23;100941.38;;;24.98;67.67
13709;BME280;54933;51.908;7.730;2023-07-13T08:08:48;100946.84;;;24.98;67.69
13709;BME280;54933;51.908;7.730;2023-07-13T08:11:14;100946.84;;;24.98;67.63
13709;BME280;54933;51.908;7.730;2023-07-13T08:13:39;100950.75;;;25.02;67.78
13709;BME280;54933;51.908;7.730;2023-07-13T08:16:05;100947.66;;;24.98;67.74
13709;BME280;54933;51.908;7.730;2023-07-13T08:18:31;100960.22;;;24.99;67.86
13709;BME280;54933;51.908;7.730;2023-07-13T08:20:56;100952.28;;;24.98;68.18
13709;BME280;54933;51.908;7.730;2023-07-13T08:23:22;100952.63;;;25.01;67.82
13709;BME280;54933;51.908;7.730;2023-07-13T08:25:52;100948.84;;;25.02;68.03
13709;BME280;54933;51.908;7.730;2023-07-13T08:28:18;100945.91;;;25.04;68.28
13709;BME280;54933;51.908;7.730;2023-07-13T08:30:43;100946.13;;;25.02;68.16
13709;BME280;54933;51.908;7.730;2023-07-13T08:33:09;100941.25;;;25.04;68.45
13709;BME280;54933;51.908;7.730;2023-07-13T08:35:34;100944.22;;;25.03;68.34
13709;BME280;54933;51.908;7.730;2023-07-13T08:37:59;100943.06;;;24.99;68.56
13709;BME280;54933;51.908;7.730;2023-07-13T08:40:27;100943.41;;;25.02;68.43
13709;BME280;54933;51.908;7.730;2023-07-13T08:42:58;100945.41;;;25.07;68.78
13709;BME280;54933;51.908;7.730;2023-07-13T08:45:42;100943.28;;;25.09;68.62
13709;BME280;54933;51.908;7.730;2023-07-13T08:48:27;100943.28;;;25.09;68.62
13709;BME280;54933;51.908;7.730;2023-07-13T08:53:38;100941.38;;;25.09;69.04
13709;BME280;54933;51.908;7.730;2023-07-13T08:56:09;100937.38;;;25.12;69.08
13709;BME280;54933;51.908;7.730;2023-07-13T08:58:36;100935.69;;;25.11;69.22
13709;BME280;54933;51.908;7.730;2023-07-13T09:01:28;100943.41;;;25.14;69.74
13709;BME280;54933;51.908;7.730;2023-07-13T09:04:11;100942.81;;;25.12;69.89
13709;BME280;54933;51.908;7.730;2023-07-13T09:06:49;100940.69;;;25.14;70.09
13709;BME280;54933;51.908;7.730;2023-07-13T09:09:35;100941.72;;;25.13;70.56
13709;BME280;54933;51.908;7.730;2023-07-13T09:12:27;100939.59;;;25.15;70.77
13709;BME280;54933;51.908;7.730;2023-07-13T09:14:57;100933.31;;;25.14;70.46
13709;BME280;54933;51.908;7.730;2023-07-13T09:17:27;100933.09;;;25.16;70.61
13709;BME280;54933;51.908;7.730;2023-07-13T09:20:00;100940.78;;;25.19;71.01
13709;BME280;54933;51.908;7.730;2023-07-13T09:22:31;100936.41;;;25.18;71.13
13709;BME280;54933;51.908;7.730;2023-07-13T09:25:10;100936.63;;;25.16;71.44
13709;BME280;54933;51.908;7.730;2023-07-13T09:27:40;100928.00;;;25.19;71.50
13709;BME280;54933;51.908;7.730;2023-07-13T09:30:33;100930.94;;;25.18;71.77
13709;BME280;54933;51.908;7.730;2023-07-13T09:32:59;100935.34;;;25.19;71.51
13709;BME280;54933;51.908;7.730;2023-07-13T09:35:27;100938.88;;;25.19;71.43
13709;BME280;54933;51.908;7.730;2023-07-13T09:37:58;100938.06;;;25.19;71.51
13709;BME280;54933;51.908;7.730;2023-07-13T09:40:29;100941.97;;;25.11;71.61
13709;BME280;54933;51.908;7.730;2023-07-13T09:42:58;100944.94;;;25.10;71.41
13709;BME280;54933;51.908;7.730;2023-07-13T09:45:28;100950.97;;;25.12;71.48
13709;BME280;54933;51.908;7.730;2023-07-13T09:48:11;100945.75;;;25.10;71.45
13709;BME280;54933;51.908;7.730;2023-07-13T09:50:39;100940.81;;;25.07;71.04
13709;BME280;54933;51.908;7.730;2023-07-13T09:53:11;100944.94;;;25.10;70.98
13709;BME280;54933;51.908;7.730;2023-07-13T09:55:38;100944.94;;;25.10;70.94
13709;BME280;54933;51.908;7.730;2023-07-13T10:00:34;100951.81;;;25.12;71.03
13709;BME280;54933;51.908;7.730;2023-07-13T10:03:01;100953.69;;;25.12;70.80
13709;BME280;54933;51.908;7.730;2023-07-13T10:05:37;100952.84;;;25.11;70.77
13709;BME280;54933;51.908;7.730;2023-07-13T10:08:02;100955.31;;;25.13;70.84
13709;BME280;54933;51.908;7.730;2023-07-13T10:10:27;100947.41;;;25.11;71.30
13709;BME280;54933;51.908;7.730;2023-07-13T10:12:53;100960.75;;;25.13;70.70
13709;BME280;54933;51.908;7.730;2023-07-13T10:15:23;100957.44;;;25.11;70.98
13709;BME280;54933;51.908;7.730;2023-07-13T10:17:52;100950.72;;;25.13;70.87
13709;BME280;54933;51.908;7.730;2023-07-13T10:20:18;100956.78;;;25.04;70.68
13709;BME280;54933;51.908;7.730;2023-07-13T10:22:52;100954.84;;;25.04;70.58
13709;BME280;54933;51.908;7.730;2023-07-13T10:25:21;100954.19;;;24.97;69.84
13709;BME280;54933;51.908;7.730;2023-07-13T10:28:03;100955.16;;;24.80;68.11
13709;BME280;54933;51.908;7.730;2023-07-13T10:30:34;100955.94;;;24.92;67.72
13709;BME280;54933;51.908;7.730;2023-07-13T10:33:10;100959.13;;;25.00;67.50
13709;BME280;54933;51.908;7.730;2023-07-13T10:35:37;100958.91;;;25.02;68.11
13709;BME280;54933;51.908;7.730;2023-07-13T10:38:17;100963.84;;;25.05;68.05
13709;BME280;54933;51.908;7.730;2023-07-13T10:41:01;100963.13;;;25.09;68.06
13709;BME280;54933;51.908;7.730;2023-07-13T10:43:34;100965.03;;;25.09;68.34
13709;BME280;54933;51.908;7.730;2023-07-13T10:46:02;100966.69;;;25.10;68.49
13709;BME280;54933;51.908;7.730;2023-07-13T10:48:29;100972.97;;;25.10;68.68
13709;BME280;54933;51.908;7.730;2023-07-13T10:50:57;100975.44;;;25.12;68.42
13709;BME280;54933;51.908;7.730;2023-07-13T10:53:30;100966.19;;;25.13;68.83
13709;BME280;54933;51.908;7.730;2023-07-13T10:55:59;100971.88;;;25.11;68.61
13709;BME280;54933;51.908;7.730;2023-07-13T10:58:38;100959.97;;;25.12;68.65
13709;BME280;54933;51.908;7.730;2023-07-13T11:01:10;100957.00;;;25.14;68.92
13709;BME280;54933;51.908;7.730;2023-07-13T11:04:17;100961.59;;;25.13;68.60
13709;BME280;54933;51.908;7.730;2023-07-13T11:06:47;100968.91;;;25.13;68.72
13709;BME280;54933;51.908;7.730;2023-07-13T11:11:44;100963.59;;;25.18;68.88
13709;BME280;54933;51.908;7.730;2023-07-13T11:14:35;100963.00;;;25.16;69.15
13709;BME280;54933;51.908;7.730;2023-07-13T11:22:48;100963.00;;;25.16;69.13
13709;BME280;54933;51.908;7.730;2023-07-13T11:25:28;100964.44;;;25.18;68.74
13709;BME280;54933;51.908;7.730;2023-07-13T11:28:24;100964.19;;;25.20;68.65
13709;BME280;54933;51.908;7.730;2023-07-13T11:33:31;100957.66;;;25.21;68.88
13709;BME280;54933;51.908;7.730;2023-07-13T11:36:16;100960.38;;;25.21;69.28
13709;BME280;54933;51.908;7.730;2023-07-13T11:39:04;100954.72;;;25.22;69.05
13709;BME280;54933;51.908;7.730;2023-07-13T11:41:44;100956.38;;;25.23;69.18
13709;BME280;54933;51.908;7.730;2023-07-13T11:44:13;100960.97;;;25.23;69.09
13709;BME280;54933;51.908;7.730;2023-07-13T11:46:45;100960.97;;;25.23;69.32
13709;BME280;54933;51.908;7.730;2023-07-13T11:49:15;100950.09;;;25.23;69.26
13709;BME280;54933;51.908;7.730;2023-07-13T11:51:41;100956.13;;;25.25;69.35
13709;BME280;54933;51.908;7.730;2023-07-13T11:54:18;100962.63;;;25.24;69.14
13709;BME280;54933;51.908;7.730;2023-07-13T11:56:46;100948.22;;;25.23;69.58
13709;BME280;54933;51.908;7.730;2023-07-13T11:59:12;100964.28;;;25.25;69.58
13709;BME280;54933;51.908;7.730;2023-07-13T12:01:44;100960.50;;;25.26;69.53
13709;BME280;54933;51.908;7.730;2023-07-13T12:04:28;100951.75;;;25.24;69.57
13709;BME280;54933;51.908;7.730;2023-07-13T12:06:58;100953.41;;;25.25;69.67
13709;BME280;54933;51.908;7.730;2023-07-13T12:09:28;100950.69;;;25.25;69.58
13709;BME280;54933;51.908;7.730;2023-07-13T12:11:56;100953.06;;;25.21;69.70
13709;BME280;54933;51.908;7.730;2023-07-13T12:14:21;100951.56;;;25.14;69.57
13709;BME280;54933;51.908;7.730;2023-07-13T12:16:50;100947.06;;;25.08;69.80
13709;BME280;54933;51.908;7.730;2023-07-13T12:19:27;100944.94;;;25.10;69.87
13709;BME280;54933;51.908;7.730;2023-07-13T12:21:55;100946.56;;;25.11;70.13
13709;BME280;54933;51.908;7.730;2023-07-13T12:24:21;100953.09;;;25.10;70.14
13709;BME280;54933;51.908;7.730;2023-07-13T12:26:53;100953.94;;;25.10;70.19
13709;BME280;54933;51.908;7.730;2023-07-13T12:29:19;100954.53;;;25.12;70.15
13709;BME280;54933;51.908;7.730;2023-07-13T12:31:47;100955.09;;;25.14;70.05
13709;BME280;54933;51.908;7.730;2023-07-13T12:34:15;100955.31;;;25.13;70.25
13709;BME280;54933;51.908;7.730;2023-07-13T12:36:53;100955.56;;;25.11;70.19
13709;BME280;54933;51.908;7.730;2023-07-13T12:39:20;100961.59;;;25.13;70.23
13709;BME280;54933;51.908;7.730;2023-07-13T12:41:49;100965.16;;;25.14;70.32
13709;BME280;54933;51.908;7.730;2023-07-13T12:44:20;100969.75;;;25.13;70.13
13709;BME280;54933;51.908;7.730;2023-07-13T12:46:59;100977.06;;;25.13;70.29
13709;BME280;54933;51.908;7.730;2023-07-13T12:49:31;100968.91;;;25.13;70.31
13709;BME280;54933;51.908;7.730;2023-07-13T12:52:02;100978.75;;;25.14;70.39
13709;BME280;54933;51.908;7.730;2023-07-13T12:54:29;100964.06;;;25.15;70.40
13709;BME280;54933;51.908;7.730;2023-07-13T12:56:55;100971.16;;;25.16;70.45
13709;BME280;54933;51.908;7.730;2023-07-13T12:59:25;100965.16;;;25.14;70.06
13709;BME280;54933;51.908;7.730;2023-07-13T13:01:53;100972.81;;;25.17;70.67
13709;BME280;54933;51.908;7.730;2023-07-13T13:04:19;100962.19;;;25.15;70.07
13709;BME280;54933;51.908;7.730;2023-07-13T13:06:47;100980.16;;;25.16;70.16
13709;BME280;54933;51.908;7.730;2023-07-13T13:09:15;100997.31;;;25.17;70.05
13709;BME280;54933;51.908;7.730;2023-07-13T13:11:41;101000.03;;;25.17;70.05
13709;BME280;54933;51.908;7.730;2023-07-13T13:14:07;101005.47;;;25.17;69.89